Arden, New York
Current Conditions -  °F | °C
As of 2:45 AM on Sunday 26 Oct 2014 (Local Time) from KSWF Reporting Station
Clear Clear  
Wind Chill: 44°   Ceiling: Unl
Heat Index: 46°   Visibility: 10mi
Dew Point: 45°   Wind: 5mph
Humidity: 93%   Direction: 300°WNW
Pressure: 29.54"   Gusts: NA
Location:  41.27°N, 74.15°W
Report Text: KSWF 260645Z 30004KT 10SM SKC 08/07 A2954
Loading
Personal Weather Stations






























Interactive Weather Map
Tropical Storm Tracking
New forecast layout! Learn more

10-Day Weather Forecast

Advertisements
Track Severe Weather on mobile